sensor_id;sensor_type;location;lat;lon;timestamp;pressure;altitude;pressure_sealevel;temperature;humidity
63019;BME280;49105;46.046;10.760;2023-02-14T00:01:36;97484.72;;;0.68;61.06
63019;BME280;49105;46.046;10.760;2023-02-14T00:04:02;97479.97;;;0.71;60.82
63019;BME280;49105;46.046;10.760;2023-02-14T00:06:30;97481.28;;;0.67;61.02
63019;BME280;49105;46.046;10.760;2023-02-14T00:09:02;97478.50;;;0.69;60.86
63019;BME280;49105;46.046;10.760;2023-02-14T00:11:27;97481.44;;;0.74;60.92
63019;BME280;49105;46.046;10.760;2023-02-14T00:13:54;97486.00;;;0.72;61.20
63019;BME280;49105;46.046;10.760;2023-02-14T00:16:38;97488.94;;;0.69;60.98
63019;BME280;49105;46.046;10.760;2023-02-14T00:19:03;97481.44;;;0.66;61.50
63019;BME280;49105;46.046;10.760;2023-02-14T00:21:30;97486.00;;;0.64;60.92
63019;BME280;49105;46.046;10.760;2023-02-14T00:23:56;97484.72;;;0.60;60.69
63019;BME280;49105;46.046;10.760;2023-02-14T00:26:21;97483.09;;;0.59;61.28
63019;BME280;49105;46.046;10.760;2023-02-14T00:28:46;97481.28;;;0.59;61.24
63019;BME280;49105;46.046;10.760;2023-02-14T00:31:12;97484.72;;;0.60;60.57
63019;BME280;49105;46.046;10.760;2023-02-14T00:33:37;97477.06;;;0.58;60.94
63019;BME280;49105;46.046;10.760;2023-02-14T00:36:04;97487.16;;;0.53;61.24
63019;BME280;49105;46.046;10.760;2023-02-14T00:38:29;97488.81;;;0.54;61.04
63019;BME280;49105;46.046;10.760;2023-02-14T00:40:55;97490.41;;;0.55;60.81
63019;BME280;49105;46.046;10.760;2023-02-14T00:43:20;97491.22;;;0.56;61.27
63019;BME280;49105;46.046;10.760;2023-02-14T00:45:45;97490.59;;;0.54;61.02
63019;BME280;49105;46.046;10.760;2023-02-14T00:48:11;97485.53;;;0.52;61.20
63019;BME280;49105;46.046;10.760;2023-02-14T00:50:36;97481.78;;;0.55;61.49
63019;BME280;49105;46.046;10.760;2023-02-14T00:53:02;97483.41;;;0.56;61.00
63019;BME280;49105;46.046;10.760;2023-02-14T00:55:27;97481.31;;;0.51;60.98
63019;BME280;49105;46.046;10.760;2023-02-14T00:57:53;97481.78;;;0.46;61.21
63019;BME280;49105;46.046;10.760;2023-02-14T01:00:18;97479.50;;;0.43;61.50
63019;BME280;49105;46.046;10.760;2023-02-14T01:02:44;97478.53;;;0.44;61.88
63019;BME280;49105;46.046;10.760;2023-02-14T01:05:09;97472.34;;;0.45;61.07
63019;BME280;49105;46.046;10.760;2023-02-14T01:07:35;97472.34;;;0.45;61.38
63019;BME280;49105;46.046;10.760;2023-02-14T01:10:00;97476.72;;;0.45;61.52
63019;BME280;49105;46.046;10.760;2023-02-14T01:12:25;97475.91;;;0.44;61.44
63019;BME280;49105;46.046;10.760;2023-02-14T01:14:51;97472.34;;;0.45;61.29
63019;BME280;49105;46.046;10.760;2023-02-14T01:17:16;97473.00;;;0.47;61.71
63019;BME280;49105;46.046;10.760;2023-02-14T01:19:42;97472.00;;;0.48;61.31
63019;BME280;49105;46.046;10.760;2023-02-14T01:22:07;97469.41;;;0.40;61.88
63019;BME280;49105;46.046;10.760;2023-02-14T01:24:34;97472.69;;;0.34;61.64
63019;BME280;49105;46.046;10.760;2023-02-14T01:26:59;97470.38;;;0.31;61.63
63019;BME280;49105;46.046;10.760;2023-02-14T01:29:24;97473.66;;;0.33;61.37
63019;BME280;49105;46.046;10.760;2023-02-14T01:31:50;97463.72;;;0.37;61.29
63019;BME280;49105;46.046;10.760;2023-02-14T01:34:15;97467.16;;;0.37;61.50
63019;BME280;49105;46.046;10.760;2023-02-14T01:36:40;97466.16;;;0.38;61.32
63019;BME280;49105;46.046;10.760;2023-02-14T01:39:10;97461.78;;;0.39;61.33
63019;BME280;49105;46.046;10.760;2023-02-14T01:41:37;97460.78;;;0.40;61.61
63019;BME280;49105;46.046;10.760;2023-02-14T01:46:42;97456.88;;;0.28;61.68
63019;BME280;49105;46.046;10.760;2023-02-14T01:51:50;97449.84;;;-0.05;62.59
63019;BME280;49105;46.046;10.760;2023-02-14T01:54:18;97446.13;;;-0.10;62.54
63019;BME280;49105;46.046;10.760;2023-02-14T01:56:50;97445.63;;;-0.06;62.53
63019;BME280;49105;46.046;10.760;2023-02-14T01:59:19;97436.53;;;-0.02;62.29
63019;BME280;49105;46.046;10.760;2023-02-14T02:01:49;97427.09;;;-0.03;62.63
63019;BME280;49105;46.046;10.760;2023-02-14T02:04:18;97426.13;;;-0.02;62.47
63019;BME280;49105;46.046;10.760;2023-02-14T02:06:56;97422.53;;;0.08;62.08
63019;BME280;49105;46.046;10.760;2023-02-14T02:09:30;97425.63;;;0.11;62.00
63019;BME280;49105;46.046;10.760;2023-02-14T02:11:56;97423.69;;;0.05;61.99
63019;BME280;49105;46.046;10.760;2023-02-14T02:14:22;97429.69;;;0.06;62.17
63019;BME280;49105;46.046;10.760;2023-02-14T02:35:47;97409.50;;;-0.25;62.85
63019;BME280;49105;46.046;10.760;2023-02-14T02:38:27;97408.19;;;-0.21;62.82
63019;BME280;49105;46.046;10.760;2023-02-14T02:43:55;97390.94;;;-0.30;62.58
63019;BME280;49105;46.046;10.760;2023-02-14T02:46:34;97392.25;;;-0.34;62.76
63019;BME280;49105;46.046;10.760;2023-02-14T02:49:36;97395.81;;;-0.35;63.10
63019;BME280;49105;46.046;10.760;2023-02-14T02:52:36;97395.34;;;-0.31;62.82
63019;BME280;49105;46.046;10.760;2023-02-14T02:58:32;97388.22;;;-0.20;62.75
63019;BME280;49105;46.046;10.760;2023-02-14T03:01:02;97385.75;;;-0.14;62.55
63019;BME280;49105;46.046;10.760;2023-02-14T03:03:31;97388.84;;;-0.10;62.55
63019;BME280;49105;46.046;10.760;2023-02-14T03:06:16;97383.66;;;-0.10;62.44
63019;BME280;49105;46.046;10.760;2023-02-14T03:08:41;97388.22;;;-0.12;62.66
63019;BME280;49105;46.046;10.760;2023-02-14T03:11:07;97381.38;;;-0.21;62.71
63019;BME280;49105;46.046;10.760;2023-02-14T03:13:53;97384.13;;;-0.23;62.93
63019;BME280;49105;46.046;10.760;2023-02-14T03:19:00;97373.72;;;-0.23;62.82
63019;BME280;49105;46.046;10.760;2023-02-14T03:26:58;97367.22;;;-0.27;63.00
63019;BME280;49105;46.046;10.760;2023-02-14T03:29:40;97368.34;;;-0.21;62.82
63019;BME280;49105;46.046;10.760;2023-02-14T03:32:18;97369.03;;;-0.19;62.42
63019;BME280;49105;46.046;10.760;2023-02-14T03:34:51;97370.63;;;-0.18;62.66
63019;BME280;49105;46.046;10.760;2023-02-14T03:37:27;97371.31;;;-0.16;62.24
63019;BME280;49105;46.046;10.760;2023-02-14T03:42:32;97383.81;;;-0.12;62.49
63019;BME280;49105;46.046;10.760;2023-02-14T03:45:02;97379.25;;;-0.10;62.73
63019;BME280;49105;46.046;10.760;2023-02-14T03:47:31;97377.31;;;-0.08;62.62
63019;BME280;49105;46.046;10.760;2023-02-14T03:50:18;97389.84;;;-0.03;62.48
63019;BME280;49105;46.046;10.760;2023-02-14T03:52:45;97375.19;;;-0.29;63.00
63019;BME280;49105;46.046;10.760;2023-02-14T03:55:15;97388.63;;;-0.50;63.02
63019;BME280;49105;46.046;10.760;2023-02-14T04:00:07;97391.88;;;-0.56;63.36
63019;BME280;49105;46.046;10.760;2023-02-14T04:02:39;97399.69;;;-0.56;63.55
63019;BME280;49105;46.046;10.760;2023-02-14T04:05:17;97394.78;;;-0.59;63.71
63019;BME280;49105;46.046;10.760;2023-02-14T04:07:55;97395.78;;;-0.60;63.37
63019;BME280;49105;46.046;10.760;2023-02-14T04:10:22;97398.38;;;-0.60;63.43
63019;BME280;49105;46.046;10.760;2023-02-14T04:12:49;97399.34;;;-0.61;63.19
63019;BME280;49105;46.046;10.760;2023-02-14T04:15:15;97396.75;;;-0.61;63.62
63019;BME280;49105;46.046;10.760;2023-02-14T04:17:40;97396.41;;;-0.58;63.29
63019;BME280;49105;46.046;10.760;2023-02-14T04:20:27;97395.59;;;-0.58;63.74
63019;BME280;49105;46.046;10.760;2023-02-14T04:22:53;97397.38;;;-0.67;63.78
63019;BME280;49105;46.046;10.760;2023-02-14T04:25:20;97393.63;;;-0.72;63.49
63019;BME280;49105;46.046;10.760;2023-02-14T04:27:45;97392.63;;;-0.80;64.11
63019;BME280;49105;46.046;10.760;2023-02-14T04:30:11;97379.16;;;-0.75;63.68
63019;BME280;49105;46.046;10.760;2023-02-14T04:32:38;97386.00;;;-0.74;63.84
63019;BME280;49105;46.046;10.760;2023-02-14T04:35:03;97382.75;;;-0.68;63.61
63019;BME280;49105;46.046;10.760;2023-02-14T04:37:29;97379.84;;;-0.65;63.57
63019;BME280;49105;46.046;10.760;2023-02-14T04:39:55;97373.03;;;-0.66;63.60
63019;BME280;49105;46.046;10.760;2023-02-14T04:42:20;97380.16;;;-0.68;63.51
63019;BME280;49105;46.046;10.760;2023-02-14T04:44:45;97372.34;;;-0.68;63.96
63019;BME280;49105;46.046;10.760;2023-02-14T04:47:11;97373.66;;;-0.64;63.36
63019;BME280;49105;46.046;10.760;2023-02-14T04:49:36;97374.31;;;-0.62;63.34
63019;BME280;49105;46.046;10.760;2023-02-14T04:52:03;97374.00;;;-0.59;63.58
63019;BME280;49105;46.046;10.760;2023-02-14T04:54:28;97369.47;;;-0.57;63.53
63019;BME280;49105;46.046;10.760;2023-02-14T04:56:54;97373.50;;;-0.62;63.53
63019;BME280;49105;46.046;10.760;2023-02-14T04:59:19;97375.47;;;-0.64;63.59
63019;BME280;49105;46.046;10.760;2023-02-14T05:01:47;97364.88;;;-0.71;63.39
63019;BME280;49105;46.046;10.760;2023-02-14T05:04:12;97372.03;;;-0.73;63.83
63019;BME280;49105;46.046;10.760;2023-02-14T05:06:37;97374.28;;;-0.78;63.64
63019;BME280;49105;46.046;10.760;2023-02-14T05:09:03;97378.19;;;-0.82;64.13
63019;BME280;49105;46.046;10.760;2023-02-14T05:11:29;97383.50;;;-0.84;63.90
63019;BME280;49105;46.046;10.760;2023-02-14T05:13:54;97388.88;;;-0.85;64.24
63019;BME280;49105;46.046;10.760;2023-02-14T05:16:19;97397.97;;;-0.89;64.16
63019;BME280;49105;46.046;10.760;2023-02-14T05:18:45;97392.47;;;-0.86;64.05
63019;BME280;49105;46.046;10.760;2023-02-14T05:21:11;97399.13;;;-0.84;63.99
63019;BME280;49105;46.046;10.760;2023-02-14T05:23:37;97393.78;;;-0.82;64.08
63019;BME280;49105;46.046;10.760;2023-02-14T05:26:02;97395.06;;;-0.86;63.74
63019;BME280;49105;46.046;10.760;2023-02-14T05:28:28;97405.59;;;-0.88;63.97
63019;BME280;49105;46.046;10.760;2023-02-14T05:30:53;97407.06;;;-0.85;64.73
63019;BME280;49105;46.046;10.760;2023-02-14T05:33:21;97407.41;;;-0.80;64.06
63019;BME280;49105;46.046;10.760;2023-02-14T05:35:46;97406.47;;;-0.71;64.26
63019;BME280;49105;46.046;10.760;2023-02-14T05:38:12;97408.13;;;-0.70;64.08
63019;BME280;49105;46.046;10.760;2023-02-14T05:40:38;97411.31;;;-0.76;63.91
63019;BME280;49105;46.046;10.760;2023-02-14T05:43:03;97421.38;;;-0.81;63.78
63019;BME280;49105;46.046;10.760;2023-02-14T05:45:29;97421.34;;;-0.89;64.50
63019;BME280;49105;46.046;10.760;2023-02-14T05:47:54;97421.34;;;-0.89;64.21
63019;BME280;49105;46.046;10.760;2023-02-14T05:50:20;97431.75;;;-0.89;64.19
63019;BME280;49105;46.046;10.760;2023-02-14T05:52:45;97421.84;;;-0.94;64.10
63019;BME280;49105;46.046;10.760;2023-02-14T05:55:10;97430.09;;;-0.98;64.32
63019;BME280;49105;46.046;10.760;2023-02-14T05:57:36;97429.75;;;-0.95;63.98
63019;BME280;49105;46.046;10.760;2023-02-14T06:00:03;97419.22;;;-0.94;64.33
63019;BME280;49105;46.046;10.760;2023-02-14T06:02:31;97419.06;;;-0.92;64.39
63019;BME280;49105;46.046;10.760;2023-02-14T06:04:56;97418.75;;;-0.89;64.30
63019;BME280;49105;46.046;10.760;2023-02-14T06:07:22;97430.09;;;-0.98;64.81
63019;BME280;49105;46.046;10.760;2023-02-14T06:09:47;97432.03;;;-1.01;64.49
63019;BME280;49105;46.046;10.760;2023-02-14T06:12:13;97419.84;;;-1.00;64.30
63019;BME280;49105;46.046;10.760;2023-02-14T06:14:38;97435.59;;;-1.02;64.54
63019;BME280;49105;46.046;10.760;2023-02-14T06:17:05;97440.41;;;-1.15;64.73
63019;BME280;49105;46.046;10.760;2023-02-14T06:19:31;97436.78;;;-1.22;64.32
63019;BME280;49105;46.046;10.760;2023-02-14T06:21:56;97438.06;;;-1.26;65.08
63019;BME280;49105;46.046;10.760;2023-02-14T06:24:22;97443.09;;;-1.25;64.88
63019;BME280;49105;46.046;10.760;2023-02-14T06:26:47;97445.56;;;-1.23;65.06
63019;BME280;49105;46.046;10.760;2023-02-14T06:29:15;97445.91;;;-1.18;65.38
63019;BME280;49105;46.046;10.760;2023-02-14T06:31:40;97440.41;;;-1.15;64.66
63019;BME280;49105;46.046;10.760;2023-02-14T06:34:06;97446.75;;;-1.09;64.53
63019;BME280;49105;46.046;10.760;2023-02-14T06:36:31;97448.84;;;-1.13;65.05
63019;BME280;49105;46.046;10.760;2023-02-14T06:38:56;97450.94;;;-1.16;64.66
63019;BME280;49105;46.046;10.760;2023-02-14T06:41:22;97451.63;;;-1.14;64.98
63019;BME280;49105;46.046;10.760;2023-02-14T06:43:47;97458.28;;;-1.12;64.80
63019;BME280;49105;46.046;10.760;2023-02-14T06:46:14;97455.38;;;-1.09;65.15
63019;BME280;49105;46.046;10.760;2023-02-14T06:48:39;97454.09;;;-1.05;64.98
63019;BME280;49105;46.046;10.760;2023-02-14T06:51:05;97454.44;;;-1.00;64.57
63019;BME280;49105;46.046;10.760;2023-02-14T06:53:30;97455.44;;;-0.92;64.62
63019;BME280;49105;46.046;10.760;2023-02-14T06:55:56;97460.25;;;-1.06;64.47
63019;BME280;49105;46.046;10.760;2023-02-14T06:58:21;97456.66;;;-1.13;65.05
63019;BME280;49105;46.046;10.760;2023-02-14T07:00:47;97454.03;;;-1.13;65.19
63019;BME280;49105;46.046;10.760;2023-02-14T07:03:12;97454.72;;;-1.11;65.37
63019;BME280;49105;46.046;10.760;2023-02-14T07:05:38;97455.72;;;-1.04;64.96
63019;BME280;49105;46.046;10.760;2023-02-14T07:08:04;97446.69;;;-0.91;64.65
63019;BME280;49105;46.046;10.760;2023-02-14T07:10:32;97441.66;;;-0.93;64.59
63019;BME280;49105;46.046;10.760;2023-02-14T07:12:58;97446.63;;;-1.00;65.15
63019;BME280;49105;46.046;10.760;2023-02-14T07:15:24;97443.75;;;-0.96;64.98
63019;BME280;49105;46.046;10.760;2023-02-14T07:17:49;97442.78;;;-0.87;65.02
63019;BME280;49105;46.046;10.760;2023-02-14T07:20:15;97437.97;;;-0.82;64.40
63019;BME280;49105;46.046;10.760;2023-02-14T07:22:42;97436.47;;;-0.85;64.45
63019;BME280;49105;46.046;10.760;2023-02-14T07:25:08;97438.22;;;-0.93;64.85
63019;BME280;49105;46.046;10.760;2023-02-14T07:27:34;97434.81;;;-0.94;64.79
63019;BME280;49105;46.046;10.760;2023-02-14T07:30:00;97439.03;;;-0.93;64.62
63019;BME280;49105;46.046;10.760;2023-02-14T07:32:25;97442.41;;;-1.01;65.10
63019;BME280;49105;46.046;10.760;2023-02-14T07:34:50;97432.31;;;-1.04;64.84
63019;BME280;49105;46.046;10.760;2023-02-14T07:37:16;97437.53;;;-1.04;65.11
63019;BME280;49105;46.046;10.760;2023-02-14T07:39:44;97446.50;;;-0.98;65.43
63019;BME280;49105;46.046;10.760;2023-02-14T07:42:10;97438.53;;;-0.96;65.28
63019;BME280;49105;46.046;10.760;2023-02-14T07:44:36;97440.16;;;-0.95;64.88
63019;BME280;49105;46.046;10.760;2023-02-14T07:47:08;97437.09;;;-0.91;65.19
63019;BME280;49105;46.046;10.760;2023-02-14T07:49:35;97431.94;;;-0.83;65.27
63019;BME280;49105;46.046;10.760;2023-02-14T07:52:01;97427.91;;;-0.77;64.95
63019;BME280;49105;46.046;10.760;2023-02-14T07:54:27;97433.63;;;-0.73;64.93
63019;BME280;49105;46.046;10.760;2023-02-14T07:56:53;97425.31;;;-0.77;64.92
63019;BME280;49105;46.046;10.760;2023-02-14T07:59:18;97427.72;;;-0.84;64.66
63019;BME280;49105;46.046;10.760;2023-02-14T08:01:44;97431.09;;;-0.91;65.15
63019;BME280;49105;46.046;10.760;2023-02-14T08:04:09;97435.47;;;-0.92;65.20
63019;BME280;49105;46.046;10.760;2023-02-14T08:06:37;97424.47;;;-0.86;65.07
63019;BME280;49105;46.046;10.760;2023-02-14T08:09:03;97424.84;;;-0.72;64.72
63019;BME280;49105;46.046;10.760;2023-02-14T08:11:28;97422.25;;;-0.64;65.11
63019;BME280;49105;46.046;10.760;2023-02-14T08:14:12;97419.00;;;-0.58;64.94
63019;BME280;49105;46.046;10.760;2023-02-14T08:16:37;97414.31;;;-0.55;64.80
63019;BME280;49105;46.046;10.760;2023-02-14T08:19:04;97404.22;;;-0.66;64.66
63019;BME280;49105;46.046;10.760;2023-02-14T08:21:29;97402.91;;;-0.70;65.09
63019;BME280;49105;46.046;10.760;2023-02-14T08:23:55;97406.16;;;-0.68;64.77
63019;BME280;49105;46.046;10.760;2023-02-14T08:26:21;97408.81;;;-0.52;64.87
63019;BME280;49105;46.046;10.760;2023-02-14T08:28:46;97393.38;;;-0.45;64.44
63019;BME280;49105;46.046;10.760;2023-02-14T08:31:12;97400.00;;;-0.59;64.82
63019;BME280;49105;46.046;10.760;2023-02-14T08:33:37;97395.13;;;-0.70;64.77
63019;BME280;49105;46.046;10.760;2023-02-14T08:36:03;97399.16;;;-0.67;65.08
63019;BME280;49105;46.046;10.760;2023-02-14T08:38:28;97386.34;;;-0.61;64.81
63019;BME280;49105;46.046;10.760;2023-02-14T08:40:59;97388.00;;;-0.52;64.91
63019;BME280;49105;46.046;10.760;2023-02-14T08:43:24;97389.31;;;-0.47;64.53
63019;BME280;49105;46.046;10.760;2023-02-14T08:45:53;97386.38;;;-0.53;64.85
63019;BME280;49105;46.046;10.760;2023-02-14T08:48:18;97385.41;;;-0.52;64.75
63019;BME280;49105;46.046;10.760;2023-02-14T08:50:44;97385.41;;;-0.43;64.93
63019;BME280;49105;46.046;10.760;2023-02-14T08:53:11;97379.25;;;-0.34;64.67
63019;BME280;49105;46.046;10.760;2023-02-14T08:55:37;97373.72;;;-0.31;64.67
63019;BME280;49105;46.046;10.760;2023-02-14T08:58:04;97372.25;;;-0.34;64.70
63019;BME280;49105;46.046;10.760;2023-02-14T09:00:30;97368.69;;;-0.33;64.97
63019;BME280;49105;46.046;10.760;2023-02-14T09:02:56;97375.53;;;-0.15;64.96
63019;BME280;49105;46.046;10.760;2023-02-14T09:05:21;97368.84;;;0.07;64.77
63019;BME280;49105;46.046;10.760;2023-02-14T09:07:49;97370.44;;;0.32;64.97
63019;BME280;49105;46.046;10.760;2023-02-14T09:10:15;97366.78;;;0.66;64.95
63019;BME280;49105;46.046;10.760;2023-02-14T09:12:43;97360.31;;;1.01;65.02
63019;BME280;49105;46.046;10.760;2023-02-14T09:15:09;97361.81;;;1.27;64.37
63019;BME280;49105;46.046;10.760;2023-02-14T09:17:36;97358.13;;;1.44;64.23
63019;BME280;49105;46.046;10.760;2023-02-14T09:20:03;97352.88;;;1.75;63.62
63019;BME280;49105;46.046;10.760;2023-02-14T09:22:31;97362.78;;;2.03;63.83
63019;BME280;49105;46.046;10.760;2023-02-14T09:24:57;97351.81;;;2.22;63.44
63019;BME280;49105;46.046;10.760;2023-02-14T09:27:22;97348.91;;;2.40;63.34
63019;BME280;49105;46.046;10.760;2023-02-14T09:29:48;97354.44;;;2.60;63.04
63019;BME280;49105;46.046;10.760;2023-02-14T09:32:14;97344.50;;;2.70;62.85
63019;BME280;49105;46.046;10.760;2023-02-14T09:34:39;97341.88;;;2.70;62.61
63019;BME280;49105;46.046;10.760;2023-02-14T09:37:05;97340.88;;;2.71;62.54
63019;BME280;49105;46.046;10.760;2023-02-14T09:39:30;97334.13;;;2.77;62.98
63019;BME280;49105;46.046;10.760;2023-02-14T09:44:50;97332.13;;;2.93;62.35
63019;BME280;49105;46.046;10.760;2023-02-14T09:47:41;97319.97;;;3.01;61.95
63019;BME280;49105;46.046;10.760;2023-02-14T09:50:19;97321.22;;;3.05;62.11
63019;BME280;49105;46.046;10.760;2023-02-14T09:52:48;97319.66;;;3.10;61.87
63019;BME280;49105;46.046;10.760;2023-02-14T09:55:15;97313.88;;;3.15;61.73
63019;BME280;49105;46.046;10.760;2023-02-14T10:11:45;97294.03;;;3.63;60.71
63019;BME280;49105;46.046;10.760;2023-02-14T10:17:14;97285.84;;;3.73;60.83
63019;BME280;49105;46.046;10.760;2023-02-14T10:19:39;97279.88;;;3.79;60.51
63019;BME280;49105;46.046;10.760;2023-02-14T10:22:15;97274.94;;;3.91;60.66
63019;BME280;49105;46.046;10.760;2023-02-14T10:27:34;97266.63;;;4.15;60.28
63019;BME280;49105;46.046;10.760;2023-02-14T10:30:01;97262.91;;;4.31;60.17
63019;BME280;49105;46.046;10.760;2023-02-14T10:35:00;97260.00;;;4.54;59.71
63019;BME280;49105;46.046;10.760;2023-02-14T10:51:40;97219.88;;;5.35;58.30
63019;BME280;49105;46.046;10.760;2023-02-14T10:56:50;97221.34;;;5.57;58.14
63019;BME280;49105;46.046;10.760;2023-02-14T11:02:33;97210.00;;;5.83;57.52
63019;BME280;49105;46.046;10.760;2023-02-14T11:05:01;97199.13;;;5.93;57.49
63019;BME280;49105;46.046;10.760;2023-02-14T11:07:27;97184.94;;;6.01;57.24
63019;BME280;49105;46.046;10.760;2023-02-14T11:09:54;97178.28;;;6.05;57.01
63019;BME280;49105;46.046;10.760;2023-02-14T11:12:38;97179.06;;;6.12;56.88
63019;BME280;49105;46.046;10.760;2023-02-14T11:17:38;97171.56;;;6.22;56.90
63019;BME280;49105;46.046;10.760;2023-02-14T11:20:22;97160.78;;;6.43;56.48
63019;BME280;49105;46.046;10.760;2023-02-14T11:22:49;97155.84;;;6.60;55.99
63019;BME280;49105;46.046;10.760;2023-02-14T11:49:04;97099.50;;;7.93;54.38
63019;BME280;49105;46.046;10.760;2023-02-14T11:51:36;97100.47;;;7.99;54.11
63019;BME280;49105;46.046;10.760;2023-02-14T11:54:04;97091.13;;;8.03;53.96
63019;BME280;49105;46.046;10.760;2023-02-14T11:59:43;97087.81;;;8.07;53.45
63019;BME280;49105;46.046;10.760;2023-02-14T12:04:59;97076.50;;;8.18;53.09
63019;BME280;49105;46.046;10.760;2023-02-14T12:11:00;97055.34;;;8.43;52.64
63019;BME280;49105;46.046;10.760;2023-02-14T12:13:25;97054.06;;;8.46;52.08
63019;BME280;49105;46.046;10.760;2023-02-14T12:15:53;97049.06;;;8.56;52.20
63019;BME280;49105;46.046;10.760;2023-02-14T12:26:52;97035.81;;;8.86;50.79
63019;BME280;49105;46.046;10.760;2023-02-14T12:29:33;97031.00;;;8.95;50.57
63019;BME280;49105;46.046;10.760;2023-02-14T12:34:44;97014.94;;;9.08;50.55
63019;BME280;49105;46.046;10.760;2023-02-14T12:54:52;96980.94;;;9.59;48.38
63019;BME280;49105;46.046;10.760;2023-02-14T12:57:56;96969.19;;;9.66;48.56
63019;BME280;49105;46.046;10.760;2023-02-14T13:03:24;96959.34;;;9.90;48.14
63019;BME280;49105;46.046;10.760;2023-02-14T13:05:59;96958.06;;;9.93;47.75
63019;BME280;49105;46.046;10.760;2023-02-14T13:25:58;96927.91;;;10.34;46.64
63019;BME280;49105;46.046;10.760;2023-02-14T13:28:29;96924.47;;;10.34;46.05
63019;BME280;49105;46.046;10.760;2023-02-14T13:30:57;96920.63;;;10.41;46.06
63019;BME280;49105;46.046;10.760;2023-02-14T13:33:47;96920.22;;;10.50;46.18
63019;BME280;49105;46.046;10.760;2023-02-14T13:36:14;96920.50;;;10.53;46.04
63019;BME280;49105;46.046;10.760;2023-02-14T13:38:48;96918.19;;;10.57;45.57
63019;BME280;49105;46.046;10.760;2023-02-14T13:41:15;96900.78;;;10.61;45.54
63019;BME280;49105;46.046;10.760;2023-02-14T13:49:33;96900.88;;;10.66;45.31
63019;BME280;49105;46.046;10.760;2023-02-14T13:52:03;96901.91;;;10.65;45.69
63019;BME280;49105;46.046;10.760;2023-02-14T13:54:41;96898.53;;;10.69;45.35
63019;BME280;49105;46.046;10.760;2023-02-14T14:00:20;96882.50;;;10.76;44.88
63019;BME280;49105;46.046;10.760;2023-02-14T14:02:50;96891.97;;;10.72;44.91
63019;BME280;49105;46.046;10.760;2023-02-14T14:11:09;96893.81;;;10.55;45.38
63019;BME280;49105;46.046;10.760;2023-02-14T14:19:02;96882.59;;;10.48;45.24
63019;BME280;49105;46.046;10.760;2023-02-14T14:21:38;96879.94;;;10.48;44.61
63019;BME280;49105;46.046;10.760;2023-02-14T14:24:24;96879.28;;;10.40;44.61
63019;BME280;49105;46.046;10.760;2023-02-14T14:26:57;96886.69;;;10.38;44.91
63019;BME280;49105;46.046;10.760;2023-02-14T14:29:34;96880.75;;;10.31;45.23
63019;BME280;49105;46.046;10.760;2023-02-14T14:32:10;96875.91;;;10.28;44.88
63019;BME280;49105;46.046;10.760;2023-02-14T14:34:36;96873.53;;;10.27;45.11
63019;BME280;49105;46.046;10.760;2023-02-14T14:37:16;96874.91;;;10.29;45.05
63019;BME280;49105;46.046;10.760;2023-02-14T14:39:51;96877.41;;;10.24;44.92
63019;BME280;49105;46.046;10.760;2023-02-14T14:42:18;96877.91;;;10.21;44.90
63019;BME280;49105;46.046;10.760;2023-02-14T14:44:53;96871.50;;;10.17;44.80
63019;BME280;49105;46.046;10.760;2023-02-14T14:47:26;96870.38;;;10.13;44.90
63019;BME280;49105;46.046;10.760;2023-02-14T14:49:58;96863.69;;;10.10;45.04
63019;BME280;49105;46.046;10.760;2023-02-14T14:52:34;96873.16;;;10.06;44.77
63019;BME280;49105;46.046;10.760;2023-02-14T14:55:24;96862.72;;;10.00;44.49
63019;BME280;49105;46.046;10.760;2023-02-14T14:57:55;96864.81;;;9.98;45.13
63019;BME280;49105;46.046;10.760;2023-02-14T15:05:42;96871.13;;;9.97;44.27
63019;BME280;49105;46.046;10.760;2023-02-14T15:16:30;96874.47;;;9.75;45.02
63019;BME280;49105;46.046;10.760;2023-02-14T15:19:04;96874.84;;;9.67;45.40
63019;BME280;49105;46.046;10.760;2023-02-14T15:24:53;96884.50;;;9.61;44.94
63019;BME280;49105;46.046;10.760;2023-02-14T15:27:31;96876.38;;;9.51;45.64
63019;BME280;49105;46.046;10.760;2023-02-14T15:30:22;96881.44;;;9.53;45.39
63019;BME280;49105;46.046;10.760;2023-02-14T15:32:50;96877.19;;;9.52;44.96
63019;BME280;49105;46.046;10.760;2023-02-14T15:35:20;96883.59;;;9.56;44.96
63019;BME280;49105;46.046;10.760;2023-02-14T15:37:51;96880.25;;;9.60;44.48
63019;BME280;49105;46.046;10.760;2023-02-14T15:40:26;96894.72;;;9.58;45.12
63019;BME280;49105;46.046;10.760;2023-02-14T15:42:52;96889.34;;;9.53;44.52
63019;BME280;49105;46.046;10.760;2023-02-14T15:45:30;96891.31;;;9.45;44.94
63019;BME280;49105;46.046;10.760;2023-02-14T15:48:16;96892.72;;;9.48;43.91
63019;BME280;49105;46.046;10.760;2023-02-14T15:58:46;96897.50;;;9.11;44.22
63019;BME280;49105;46.046;10.760;2023-02-14T16:01:13;96892.47;;;8.98;44.73
63019;BME280;49105;46.046;10.760;2023-02-14T16:03:52;96903.72;;;8.81;44.72
63019;BME280;49105;46.046;10.760;2023-02-14T16:06:35;96906.44;;;8.63;45.34
63019;BME280;49105;46.046;10.760;2023-02-14T16:09:26;96906.13;;;8.48;45.40
63019;BME280;49105;46.046;10.760;2023-02-14T16:11:52;96903.13;;;8.44;45.22
63019;BME280;49105;46.046;10.760;2023-02-14T16:14:28;96913.38;;;8.34;45.53
63019;BME280;49105;46.046;10.760;2023-02-14T16:16:58;96912.34;;;8.23;45.36
63019;BME280;49105;46.046;10.760;2023-02-14T16:19:44;96917.25;;;8.19;45.45
63019;BME280;49105;46.046;10.760;2023-02-14T16:22:27;96914.94;;;8.11;45.59
63019;BME280;49105;46.046;10.760;2023-02-14T16:24:59;96918.69;;;8.04;45.76
63019;BME280;49105;46.046;10.760;2023-02-14T16:27:25;96929.91;;;7.99;45.94
63019;BME280;49105;46.046;10.760;2023-02-14T16:29:51;96928.53;;;7.96;45.94
63019;BME280;49105;46.046;10.760;2023-02-14T16:32:25;96932.16;;;7.84;46.39
63019;BME280;49105;46.046;10.760;2023-02-14T16:34:53;96929.09;;;7.68;46.31
63019;BME280;49105;46.046;10.760;2023-02-14T16:37:31;96932.31;;;7.52;46.47
63019;BME280;49105;46.046;10.760;2023-02-14T16:39:58;96940.63;;;7.37;46.90
63019;BME280;49105;46.046;10.760;2023-02-14T16:42:31;96939.06;;;7.30;47.09
63019;BME280;49105;46.046;10.760;2023-02-14T16:45:02;96942.81;;;7.22;47.33